Time;durP1;ratioP1;P1;durP2;ratioP2;P2;SDS_P1;SDS_P2;PMS_P1;PMS_P2;Temp;Humidity;BMP_temperature;BMP_pressure;BME280_temperature;BME280_humidity;BME280_pressure;Samples;Min_cycle;Max_cycle;Signal;HPM_P1;HPM_P2
2021/07/29 00:00:04;;;;;;;12.15;6.50;;;;;;;;;;10505203;28;20455;-84
2021/07/29 00:05:05;;;;;;;12.20;6.65;;;;;;;;;;10494699;28;20055;-84
2021/07/29 00:10:06;;;;;;;8.60;6.50;;;;;;;;;;10513376;28;20051;-85
2021/07/29 00:15:11;;;;;;;16.52;6.63;;;;;;;;;;10517677;28;20032;-85
2021/07/29 00:20:18;;;;;;;11.88;6.10;;;;;;;;;;10519584;28;20425;-84
2021/07/29 00:25:20;;;;;;;21.37;6.47;;;;;;;;;;10482602;28;20033;-84
2021/07/29 00:30:23;;;;;;;11.23;6.35;;;;;;;;;;10525635;28;20468;-84
2021/07/29 00:35:23;;;;;;;10.38;6.55;;;;;;;;;;10497048;28;20108;-83
2021/07/29 00:40:24;;;;;;;12.63;6.78;;;;;;;;;;10497793;28;20515;-84
2021/07/29 00:45:24;;;;;;;15.30;6.93;;;;;;;;;;10510915;28;20028;-85
2021/07/29 00:50:24;;;;;;;10.77;6.75;;;;;;;;;;10497214;28;20024;-86
2021/07/29 00:55:25;;;;;;;15.35;6.10;;;;;;;;;;10497804;28;20463;-86
2021/07/29 01:00:25;;;;;;;11.20;5.87;;;;;;;;;;10508520;28;20111;-85
2021/07/29 01:05:26;;;;;;;10.80;6.33;;;;;;;;;;10496186;28;20429;-85
2021/07/29 01:10:26;;;;;;;12.27;6.70;;;;;;;;;;10510483;28;20579;-85
2021/07/29 01:15:27;;;;;;;11.80;6.65;;;;;;;;;;10494708;28;20529;-85
2021/07/29 01:20:29;;;;;;;15.20;6.75;;;;;;;;;;10495143;28;20037;-84
2021/07/29 01:25:29;;;;;;;15.00;7.22;;;;;;;;;;10496844;28;20504;-85
2021/07/29 01:30:29;;;;;;;15.03;6.70;;;;;;;;;;10503513;28;20119;-85
2021/07/29 01:35:30;;;;;;;13.47;7.10;;;;;;;;;;10520437;28;20055;-85
2021/07/29 01:40:30;;;;;;;16.67;7.65;;;;;;;;;;10504351;28;20029;-85
2021/07/29 01:45:31;;;;;;;12.80;7.30;;;;;;;;;;10522531;28;20024;-85
2021/07/29 01:50:31;;;;;;;20.23;7.82;;;;;;;;;;10517056;28;20457;-83
2021/07/29 01:55:32;;;;;;;13.53;8.00;;;;;;;;;;10503146;28;20029;-84
2021/07/29 02:00:32;;;;;;;14.23;7.93;;;;;;;;;;10504936;28;20039;-84
2021/07/29 02:05:33;;;;;;;11.60;7.25;;;;;;;;;;10501713;28;20020;-83
2021/07/29 02:10:34;;;;;;;16.27;7.63;;;;;;;;;;10540225;28;20044;-84
2021/07/29 02:15:34;;;;;;;12.93;7.28;;;;;;;;;;10506064;28;20052;-85
2021/07/29 02:20:34;;;;;;;11.80;7.70;;;;;;;;;;10500913;28;20042;-85
2021/07/29 02:25:35;;;;;;;16.90;8.07;;;;;;;;;;10521308;28;20503;-83
2021/07/29 02:30:35;;;;;;;12.57;7.27;;;;;;;;;;10515670;28;20859;-85
2021/07/29 02:35:36;;;;;;;12.43;7.83;;;;;;;;;;10515085;28;20128;-86
2021/07/29 02:40:36;;;;;;;13.10;7.75;;;;;;;;;;10499697;28;20063;-86
2021/07/29 02:45:36;;;;;;;9.10;5.13;;;;;;;;;;10505639;28;20036;-86
2021/07/29 02:50:37;;;;;;;9.27;4.67;;;;;;;;;;10534007;28;20475;-84
2021/07/29 02:55:37;;;;;;;13.17;5.10;;;;;;;;;;10514891;28;20529;-83
2021/07/29 03:00:37;;;;;;;6.87;4.53;;;;;;;;;;10511879;28;20468;-84
2021/07/29 03:05:38;;;;;;;11.40;5.00;;;;;;;;;;10523384;28;20429;-84
2021/07/29 03:10:38;;;;;;;12.40;4.83;;;;;;;;;;10519204;28;20453;-84
2021/07/29 03:15:39;;;;;;;12.93;4.97;;;;;;;;;;10499481;28;20465;-85
2021/07/29 03:20:40;;;;;;;8.13;5.60;;;;;;;;;;10498739;28;20033;-84
2021/07/29 03:25:41;;;;;;;7.30;5.40;;;;;;;;;;10527604;28;20384;-85
2021/07/29 03:30:41;;;;;;;11.60;6.07;;;;;;;;;;10527665;28;20024;-85
2021/07/29 03:35:42;;;;;;;13.87;6.50;;;;;;;;;;10498298;28;20070;-85
2021/07/29 03:40:42;;;;;;;11.25;5.95;;;;;;;;;;10496802;28;20025;-86
2021/07/29 03:45:44;;;;;;;14.57;6.75;;;;;;;;;;10513008;28;20157;-86
2021/07/29 03:50:44;;;;;;;10.18;6.40;;;;;;;;;;10497251;28;20479;-86
2021/07/29 03:55:46;;;;;;;11.02;6.55;;;;;;;;;;10513456;28;20058;-85
2021/07/29 04:00:46;;;;;;;13.10;6.53;;;;;;;;;;10496922;28;20040;-84
2021/07/29 04:05:46;;;;;;;12.50;7.47;;;;;;;;;;10497560;28;20451;-86
2021/07/29 04:10:47;;;;;;;11.77;7.20;;;;;;;;;;10512460;23;20083;-87
2021/07/29 04:15:47;;;;;;;18.75;6.88;;;;;;;;;;10468492;28;20460;-87
2021/07/29 04:20:48;;;;;;;14.77;7.17;;;;;;;;;;10486968;28;20550;-87
2021/07/29 04:25:48;;;;;;;13.27;5.83;;;;;;;;;;10478422;28;20059;-83
2021/07/29 04:30:49;;;;;;;9.05;5.13;;;;;;;;;;10463856;28;20037;-83
2021/07/29 04:35:49;;;;;;;10.53;4.80;;;;;;;;;;10443138;28;20086;-83
2021/07/29 04:41:00;;;;;;;15.37;4.70;;;;;;;;;;10460869;28;20449;-84
2021/07/29 04:46:02;;;;;;;7.88;4.15;;;;;;;;;;10452145;28;20033;-84
2021/07/29 04:51:03;;;;;;;6.75;4.32;;;;;;;;;;10462138;28;20056;-81
2021/07/29 04:56:04;;;;;;;9.57;4.20;;;;;;;;;;10461364;28;20036;-81
2021/07/29 05:01:05;;;;;;;9.15;3.70;;;;;;;;;;10473636;28;20043;-80
2021/07/29 05:06:06;;;;;;;4.28;3.65;;;;;;;;;;10461093;28;20029;-81
2021/07/29 05:11:06;;;;;;;7.63;3.85;;;;;;;;;;10474897;28;20041;-80
2021/07/29 05:16:07;;;;;;;7.10;4.27;;;;;;;;;;10467280;28;20434;-80
2021/07/29 05:21:09;;;;;;;4.43;3.63;;;;;;;;;;10459403;28;20187;-78
2021/07/29 05:26:14;;;;;;;6.45;3.35;;;;;;;;;;10449718;28;20381;-79
2021/07/29 05:31:14;;;;;;;5.03;3.97;;;;;;;;;;10461212;28;20451;-80
2021/07/29 05:36:14;;;;;;;5.03;3.30;;;;;;;;;;10461219;28;20115;-78
2021/07/29 05:41:15;;;;;;;26.67;4.40;;;;;;;;;;10456406;28;20029;-80
2021/07/29 05:46:15;;;;;;;121.87;11.30;;;;;;;;;;10453604;28;20057;-84
2021/07/29 05:51:16;;;;;;;57.70;6.70;;;;;;;;;;10455896;28;20037;-84
2021/07/29 05:56:16;;;;;;;29.63;5.43;;;;;;;;;;10462360;28;20063;-87
2021/07/29 06:01:16;;;;;;;22.30;5.00;;;;;;;;;;10434839;28;20029;-88
2021/07/29 06:06:17;;;;;;;16.53;4.53;;;;;;;;;;10463151;28;20029;-89
2021/07/29 06:11:17;;;;;;;12.50;4.37;;;;;;;;;;10459365;28;20132;-88
2021/07/29 06:16:18;;;;;;;12.50;5.07;;;;;;;;;;10472785;28;20086;-88
2021/07/29 06:21:19;;;;;;;11.27;4.07;;;;;;;;;;10458959;28;20057;-88
2021/07/29 06:26:19;;;;;;;11.27;3.83;;;;;;;;;;10462839;28;20449;-89
2021/07/29 06:31:19;;;;;;;12.67;4.33;;;;;;;;;;10464619;28;20074;-88
2021/07/29 06:36:20;;;;;;;6.18;4.13;;;;;;;;;;10462363;28;20462;-88
2021/07/29 06:41:20;;;;;;;8.07;4.37;;;;;;;;;;10459585;28;20473;-87
2021/07/29 06:46:21;;;;;;;6.03;3.87;;;;;;;;;;10469149;28;20056;-88
2021/07/29 06:51:21;;;;;;;5.60;3.80;;;;;;;;;;10470457;28;20114;-87
2021/07/29 06:56:22;;;;;;;8.33;3.70;;;;;;;;;;10461880;28;20044;-87
2021/07/29 07:01:22;;;;;;;5.88;3.67;;;;;;;;;;10426123;28;20502;-88
2021/07/29 07:06:22;;;;;;;6.43;3.87;;;;;;;;;;10465116;28;20037;-89
2021/07/29 07:11:23;;;;;;;7.20;3.83;;;;;;;;;;10379840;28;20120;-89
2021/07/29 07:16:23;;;;;;;10.88;3.78;;;;;;;;;;10392306;28;20038;-88
2021/07/29 07:21:24;;;;;;;8.83;3.93;;;;;;;;;;10389861;28;20033;-86
2021/07/29 07:26:25;;;;;;;9.00;3.87;;;;;;;;;;10395915;28;20533;-87
2021/07/29 07:31:25;;;;;;;5.63;3.78;;;;;;;;;;10380368;28;20065;-87
2021/07/29 07:36:26;;;;;;;10.30;3.87;;;;;;;;;;10375927;28;20098;-89
2021/07/29 07:41:26;;;;;;;6.43;3.67;;;;;;;;;;10389377;28;20519;-89
2021/07/29 07:46:26;;;;;;;4.47;3.50;;;;;;;;;;10375001;28;20048;-87
2021/07/29 07:51:28;;;;;;;5.83;3.50;;;;;;;;;;10389134;28;20575;-87
2021/07/29 07:56:29;;;;;;;8.35;4.22;;;;;;;;;;10377820;28;20473;-87
2021/07/29 08:01:29;;;;;;;7.13;4.13;;;;;;;;;;10378758;28;20034;-87
2021/07/29 08:06:29;;;;;;;6.03;3.53;;;;;;;;;;10368866;28;20033;-87
2021/07/29 08:11:30;;;;;;;5.30;3.10;;;;;;;;;;10463098;28;20021;-87
2021/07/29 08:16:30;;;;;;;7.95;3.60;;;;;;;;;;10425131;28;20017;-87
2021/07/29 08:21:31;;;;;;;5.30;3.53;;;;;;;;;;10446302;28;20107;-87
2021/07/29 08:26:31;;;;;;;7.23;3.67;;;;;;;;;;10455407;28;20124;-86
2021/07/29 08:31:32;;;;;;;5.03;3.47;;;;;;;;;;10456092;28;20086;-87
2021/07/29 08:36:32;;;;;;;8.17;3.70;;;;;;;;;;10451452;28;20443;-88
2021/07/29 08:41:32;;;;;;;8.10;3.93;;;;;;;;;;10446293;28;20056;-87
2021/07/29 08:46:35;;;;;;;9.63;4.07;;;;;;;;;;10465203;28;20561;-93
2021/07/29 08:51:36;;;;;;;7.00;3.83;;;;;;;;;;10465546;28;20456;-94
2021/07/29 08:56:37;;;;;;;10.25;3.78;;;;;;;;;;10465524;28;20040;-93
2021/07/29 09:01:39;;;;;;;10.10;4.25;;;;;;;;;;10448993;28;20041;-93
2021/07/29 09:07:00;;;;;;;6.57;4.07;;;;;;;;;;10439983;28;20052;-93
2021/07/29 09:12:20;;;;;;;10.82;4.65;;;;;;;;;;10455516;28;20033;-94
2021/07/29 09:17:21;;;;;;;10.30;4.47;;;;;;;;;;10446658;28;20029;-91
2021/07/29 09:22:33;;;;;;;12.27;4.00;;;;;;;;;;10420364;28;20483;-89
2021/07/29 09:27:39;;;;;;;10.07;4.20;;;;;;;;;;10475393;28;20033;-90
2021/07/29 09:33:10;;;;;;;8.88;4.40;;;;;;;;;;10457063;28;20109;-89
2021/07/29 09:38:27;;;;;;;8.75;4.03;;;;;;;;;;10449708;28;20040;-89
2021/07/29 09:43:32;;;;;;;7.97;3.60;;;;;;;;;;10450333;28;20041;-90
2021/07/29 09:48:33;;;;;;;8.15;4.18;;;;;;;;;;10461225;28;20111;-89
2021/07/29 09:53:34;;;;;;;7.28;3.90;;;;;;;;;;10433413;28;20135;-90
2021/07/29 09:58:35;;;;;;;9.52;4.72;;;;;;;;;;10475757;28;20120;-90
2021/07/29 10:03:35;;;;;;;7.75;3.60;;;;;;;;;;10474047;28;20082;-90
2021/07/29 10:08:51;;;;;;;10.50;4.35;;;;;;;;;;10468206;28;20041;-89
2021/07/29 10:13:52;;;;;;;8.95;4.38;;;;;;;;;;10459425;28;20049;-88
2021/07/29 10:18:53;;;;;;;9.88;4.88;;;;;;;;;;10460808;28;20496;-86
2021/07/29 10:23:56;;;;;;;8.00;4.40;;;;;;;;;;10461055;28;20035;-93
2021/07/29 10:29:20;;;;;;;10.20;4.15;;;;;;;;;;10460733;28;20029;-89
2021/07/29 10:34:33;;;;;;;8.32;4.30;;;;;;;;;;10459403;28;20041;-89
2021/07/29 10:39:56;;;;;;;7.95;4.35;;;;;;;;;;10458442;28;20037;-89
2021/07/29 10:44:57;;;;;;;7.15;4.10;;;;;;;;;;10456988;28;20128;-89
2021/07/29 10:49:58;;;;;;;8.23;4.60;;;;;;;;;;10459253;28;20068;-89
2021/07/29 10:55:00;;;;;;;6.33;4.00;;;;;;;;;;10459051;28;20043;-89
2021/07/29 11:00:00;;;;;;;9.27;4.95;;;;;;;;;;10457634;28;20037;-90
2021/07/29 11:05:04;;;;;;;7.30;4.03;;;;;;;;;;10483227;28;20392;-89
2021/07/29 11:10:06;;;;;;;9.80;4.47;;;;;;;;;;10464371;28;20501;-90
2021/07/29 11:15:08;;;;;;;9.52;4.78;;;;;;;;;;10451403;28;20032;-89
2021/07/29 11:20:10;;;;;;;9.07;4.90;;;;;;;;;;10478982;28;20119;-90
2021/07/29 11:25:11;;;;;;;8.65;4.65;;;;;;;;;;10476492;28;20040;-89
2021/07/29 11:30:12;;;;;;;6.53;4.47;;;;;;;;;;10476054;28;20492;-87
2021/07/29 11:35:17;;;;;;;7.38;4.80;;;;;;;;;;10473569;28;20141;-90
2021/07/29 11:40:22;;;;;;;9.27;4.50;;;;;;;;;;10481261;28;20037;-91
2021/07/29 11:45:25;;;;;;;12.93;5.07;;;;;;;;;;10478327;28;20028;-84
2021/07/29 11:50:32;;;;;;;7.90;4.65;;;;;;;;;;10475044;28;20039;-83
2021/07/29 11:55:33;;;;;;;11.85;5.13;;;;;;;;;;10469673;28;20044;-86
2021/07/29 12:00:35;;;;;;;6.70;4.30;;;;;;;;;;10471260;28;20040;-89
2021/07/29 12:05:35;;;;;;;12.15;5.03;;;;;;;;;;10489772;28;20060;-90
2021/07/29 12:10:37;;;;;;;8.40;4.78;;;;;;;;;;10453442;28;20472;-93
2021/07/29 12:15:38;;;;;;;9.18;4.72;;;;;;;;;;10427875;28;20033;-94
2021/07/29 12:20:43;;;;;;;8.95;5.40;;;;;;;;;;10461583;28;20044;-95
2021/07/29 12:25:45;;;;;;;9.40;4.50;;;;;;;;;;10462610;28;20040;-96
2021/07/29 12:30:46;;;;;;;6.72;4.95;;;;;;;;;;10457054;28;20499;-89
2021/07/29 12:35:58;;;;;;;8.35;5.13;;;;;;;;;;10458912;28;20037;-89
2021/07/29 12:40:59;;;;;;;11.23;4.78;;;;;;;;;;10455015;28;20037;-93
2021/07/29 12:46:03;;;;;;;7.32;4.60;;;;;;;;;;10456638;28;20036;-91
2021/07/29 12:51:03;;;;;;;14.50;5.20;;;;;;;;;;10461812;28;20035;-94
2021/07/29 12:56:14;;;;;;;8.43;5.85;;;;;;;;;;10459635;28;20370;-94
2021/07/29 13:01:18;;;;;;;8.35;4.55;;;;;;;;;;10473845;28;20128;-87
2021/07/29 13:06:19;;;;;;;8.80;5.10;;;;;;;;;;10457755;28;20115;-91
2021/07/29 13:11:20;;;;;;;7.72;4.82;;;;;;;;;;10466888;28;20053;-90
2021/07/29 13:16:21;;;;;;;12.52;5.07;;;;;;;;;;10456179;28;20383;-89
2021/07/29 13:21:21;;;;;;;14.18;5.75;;;;;;;;;;10454537;28;20499;-89
2021/07/29 13:26:21;;;;;;;9.67;5.07;;;;;;;;;;10460482;28;20083;-89
2021/07/29 13:31:22;;;;;;;8.32;4.68;;;;;;;;;;10461123;28;20051;-88
2021/07/29 13:36:22;;;;;;;9.83;5.43;;;;;;;;;;10461473;28;20544;-90
2021/07/29 13:41:22;;;;;;;15.30;4.87;;;;;;;;;;10469178;28;20037;-92
2021/07/29 13:46:23;;;;;;;12.83;5.50;;;;;;;;;;10460755;28;20071;-90
2021/07/29 13:51:23;;;;;;;52.73;7.40;;;;;;;;;;10460583;28;20021;-89
2021/07/29 13:56:24;;;;;;;13.93;4.97;;;;;;;;;;10452191;28;20033;-85
2021/07/29 14:01:25;;;;;;;27.07;6.13;;;;;;;;;;10451857;28;20485;-88
2021/07/29 14:06:26;;;;;;;14.93;5.03;;;;;;;;;;10501088;28;20774;-88
2021/07/29 14:11:26;;;;;;;14.15;5.53;;;;;;;;;;10502477;28;20107;-88
2021/07/29 14:16:27;;;;;;;19.27;5.50;;;;;;;;;;10497086;28;20510;-88
2021/07/29 14:21:33;;;;;;;15.13;5.33;;;;;;;;;;10461151;28;20032;-89
2021/07/29 14:26:33;;;;;;;10.77;5.57;;;;;;;;;;10462725;28;20037;-87
2021/07/29 14:31:34;;;;;;;12.70;5.07;;;;;;;;;;10489944;28;20480;-92
2021/07/29 14:36:34;;;;;;;11.15;4.95;;;;;;;;;;10467789;28;20025;-87
2021/07/29 14:41:34;;;;;;;10.17;4.97;;;;;;;;;;10498950;28;20111;-92
2021/07/29 14:51:42;;;;;;;11.23;5.10;;;;;;;;;;10460438;28;20789;-85
2021/07/29 14:56:49;;;;;;;7.97;5.20;;;;;;;;;;10494080;28;20033;-89
2021/07/29 16:10:58;;;;;;;9.80;5.88;;;;;;;;;;10482685;23;20056;-84
2021/07/29 16:15:58;;;;;;;11.35;5.88;;;;;;;;;;10454230;28;20025;-83
2021/07/29 16:20:59;;;;;;;10.53;5.77;;;;;;;;;;10453781;28;20036;-84
2021/07/29 16:26:00;;;;;;;9.43;5.28;;;;;;;;;;10443088;28;20061;-86
2021/07/29 16:31:00;;;;;;;17.73;6.30;;;;;;;;;;10455793;28;20056;-89
2021/07/29 16:36:00;;;;;;;11.47;5.43;;;;;;;;;;10455517;28;20374;-88
2021/07/29 16:41:01;;;;;;;7.80;5.33;;;;;;;;;;10449018;28;20446;-88
2021/07/29 16:46:02;;;;;;;7.77;5.13;;;;;;;;;;10436746;28;20471;-89
2021/07/29 16:51:02;;;;;;;11.85;5.07;;;;;;;;;;10438639;28;20091;-87
2021/07/29 16:56:03;;;;;;;12.00;5.23;;;;;;;;;;10435494;28;20024;-88
2021/07/29 17:01:03;;;;;;;9.30;5.10;;;;;;;;;;10463205;28;20453;-87
2021/07/29 17:06:04;;;;;;;10.88;4.72;;;;;;;;;;10465030;28;20468;-88
2021/07/29 17:11:04;;;;;;;12.63;5.93;;;;;;;;;;10461348;28;20040;-86
2021/07/29 17:16:05;;;;;;;7.43;4.77;;;;;;;;;;10462484;28;20446;-87
2021/07/29 17:21:05;;;;;;;8.50;4.97;;;;;;;;;;10460428;28;20447;-87
2021/07/29 17:26:09;;;;;;;9.50;5.28;;;;;;;;;;10465016;28;20469;-87
2021/07/29 17:31:10;;;;;;;8.07;5.38;;;;;;;;;;10458416;28;20048;-86
2021/07/29 17:36:16;;;;;;;7.97;5.00;;;;;;;;;;10462495;28;20087;-87
2021/07/29 17:41:16;;;;;;;8.15;4.82;;;;;;;;;;10444377;28;20890;-87
2021/07/29 17:46:17;;;;;;;5.77;4.37;;;;;;;;;;10461781;28;20108;-87
2021/07/29 17:51:17;;;;;;;7.00;4.67;;;;;;;;;;10436764;28;20072;-87
2021/07/29 17:56:17;;;;;;;7.57;4.43;;;;;;;;;;10457150;28;20048;-87
2021/07/29 18:01:18;;;;;;;8.43;4.10;;;;;;;;;;10462089;28;20115;-87
2021/07/29 18:06:20;;;;;;;10.80;4.87;;;;;;;;;;10446475;28;20025;-87
2021/07/29 18:11:21;;;;;;;10.50;4.82;;;;;;;;;;10461103;28;20470;-88
2021/07/29 18:16:21;;;;;;;6.43;4.53;;;;;;;;;;10458901;28;20041;-89
2021/07/29 18:21:21;;;;;;;6.60;4.60;;;;;;;;;;10458965;28;20060;-89
2021/07/29 18:26:22;;;;;;;6.17;4.43;;;;;;;;;;10459461;28;20111;-89
2021/07/29 18:31:22;;;;;;;7.70;5.07;;;;;;;;;;10442078;28;20036;-89
2021/07/29 18:36:23;;;;;;;10.30;5.20;;;;;;;;;;10437354;28;20020;-91
2021/07/29 18:41:23;;;;;;;10.10;5.35;;;;;;;;;;10441587;28;20029;-92
2021/07/29 18:46:23;;;;;;;7.10;4.57;;;;;;;;;;10442134;28;20033;-92
2021/07/29 18:51:24;;;;;;;8.23;5.00;;;;;;;;;;10434511;28;20033;-93
2021/07/29 18:56:24;;;;;;;6.13;4.37;;;;;;;;;;10442298;28;20372;-92
2021/07/29 19:01:25;;;;;;;10.80;5.13;;;;;;;;;;10442022;28;20465;-91
2021/07/29 19:06:25;;;;;;;7.15;5.07;;;;;;;;;;10434519;28;20094;-92
2021/07/29 19:11:26;;;;;;;8.50;4.97;;;;;;;;;;10440918;28;20056;-90
2021/07/29 19:16:26;;;;;;;9.95;5.53;;;;;;;;;;10432107;28;20017;-89
2021/07/29 19:21:26;;;;;;;6.47;4.72;;;;;;;;;;10436324;28;20162;-90
2021/07/29 19:26:27;;;;;;;9.60;4.87;;;;;;;;;;10439081;28;20123;-90
2021/07/29 19:31:27;;;;;;;9.53;5.10;;;;;;;;;;10439141;28;20091;-90
2021/07/29 19:36:28;;;;;;;5.70;5.10;;;;;;;;;;10437525;28;21050;-90
2021/07/29 19:41:28;;;;;;;12.02;6.05;;;;;;;;;;10456520;28;20052;-91
2021/07/29 19:46:29;;;;;;;9.80;5.40;;;;;;;;;;10443123;28;20032;-91
2021/07/29 19:51:30;;;;;;;10.93;5.20;;;;;;;;;;10433104;28;20369;-87
2021/07/29 19:56:30;;;;;;;9.88;5.68;;;;;;;;;;10439047;28;20037;-87
2021/07/29 20:01:33;;;;;;;10.90;5.90;;;;;;;;;;10455738;28;20131;-88
2021/07/29 20:06:33;;;;;;;8.13;4.97;;;;;;;;;;10454252;28;20104;-88
2021/07/29 20:11:34;;;;;;;10.07;6.13;;;;;;;;;;10437490;28;20032;-88
2021/07/29 20:16:35;;;;;;;9.25;6.13;;;;;;;;;;10445893;28;20083;-87
2021/07/29 20:21:36;;;;;;;11.40;6.00;;;;;;;;;;10454367;28;20435;-87
2021/07/29 20:26:37;;;;;;;11.75;7.15;;;;;;;;;;10453423;28;20458;-88
2021/07/29 20:31:37;;;;;;;14.15;6.80;;;;;;;;;;10453253;28;20501;-87
2021/07/29 20:36:37;;;;;;;15.32;7.95;;;;;;;;;;10457645;28;20111;-88
2021/07/29 20:41:38;;;;;;;13.53;7.03;;;;;;;;;;10454950;28;20033;-88
2021/07/29 20:46:38;;;;;;;9.47;6.43;;;;;;;;;;10446893;28;21270;-89
2021/07/29 20:51:39;;;;;;;11.70;8.17;;;;;;;;;;10446325;28;20091;-91
2021/07/29 20:56:39;;;;;;;12.77;7.57;;;;;;;;;;10446135;28;20029;-87
2021/07/29 21:01:39;;;;;;;10.23;6.50;;;;;;;;;;10456203;28;20465;-87
2021/07/29 21:06:40;;;;;;;11.03;7.47;;;;;;;;;;10461627;28;20534;-88
2021/07/29 21:11:40;;;;;;;13.93;7.63;;;;;;;;;;10462625;28;20477;-86
2021/07/29 21:16:41;;;;;;;16.10;7.07;;;;;;;;;;10460463;28;20103;-87
2021/07/29 21:21:41;;;;;;;11.32;7.15;;;;;;;;;;10459081;28;20489;-88
2021/07/29 21:26:41;;;;;;;11.20;6.40;;;;;;;;;;10461417;28;20036;-89
2021/07/29 21:31:42;;;;;;;14.43;7.13;;;;;;;;;;10460496;28;21015;-86
2021/07/29 21:36:44;;;;;;;12.73;7.00;;;;;;;;;;10459681;28;20028;-84
2021/07/29 21:41:44;;;;;;;30.55;7.55;;;;;;;;;;10461083;28;20460;-85
